Time;durP1;ratioP1;P1;durP2;ratioP2;P2;SDS_P1;SDS_P2;PMS_P1;PMS_P2;Temp;Humidity;BMP_temperature;BMP_pressure;BME280_temperature;BME280_humidity;BME280_pressure;Samples;Min_cycle;Max_cycle;Signal;HPM_P1;HPM_P2
2022/05/11 00:00:10;;;;;;;16.70;8.93;;;12.70;99.90;;;;;;5137082;27;20043;-82
2022/05/11 00:02:37;;;;;;;17.55;9.52;;;12.70;99.90;;;;;;5135544;27;20431;-83
2022/05/11 00:05:05;;;;;;;17.70;9.48;;;12.70;99.90;;;;;;5156051;27;20117;-82
2022/05/11 00:07:31;;;;;;;17.70;10.32;;;12.70;99.90;;;;;;5134540;27;20046;-83
2022/05/11 00:09:58;;;;;;;16.08;10.25;;;12.80;99.90;;;;;;5137678;27;20043;-82
2022/05/11 00:12:27;;;;;;;17.88;10.20;;;12.80;99.90;;;;;;5136378;27;20043;-82
2022/05/11 00:14:53;;;;;;;17.75;10.25;;;12.80;99.90;;;;;;5154744;27;20045;-82
2022/05/11 00:17:19;;;;;;;19.92;10.05;;;12.80;99.90;;;;;;5131708;27;20076;-82
2022/05/11 00:19:44;;;;;;;16.85;10.00;;;12.90;99.90;;;;;;5126568;27;20117;-83
2022/05/11 00:22:10;;;;;;;13.32;8.73;;;12.90;99.90;;;;;;5150787;27;20558;-82
2022/05/11 00:24:36;;;;;;;18.08;10.70;;;12.90;99.90;;;;;;5120062;27;20039;-82
2022/05/11 00:27:02;;;;;;;16.60;8.95;;;12.90;99.90;;;;;;5128905;27;20126;-82
2022/05/11 00:29:30;;;;;;;15.23;10.10;;;12.90;99.90;;;;;;5116736;27;20159;-82
2022/05/11 00:31:56;;;;;;;15.32;9.55;;;12.90;99.90;;;;;;5127013;27;20047;-82
2022/05/11 00:34:22;;;;;;;13.10;8.88;;;12.90;99.90;;;;;;5115694;27;20118;-82
2022/05/11 00:36:48;;;;;;;18.33;9.52;;;12.90;99.90;;;;;;5147634;27;20143;-82
2022/05/11 00:39:14;;;;;;;17.10;9.35;;;13.00;99.90;;;;;;5137058;27;20490;-82
2022/05/11 00:41:42;;;;;;;14.10;8.93;;;13.00;99.90;;;;;;5133874;27;20042;-82
2022/05/11 00:44:12;;;;;;;16.23;10.13;;;13.00;99.90;;;;;;5155637;27;20107;-82
2022/05/11 00:46:42;;;;;;;19.60;9.75;;;13.00;99.90;;;;;;5150090;27;20052;-82
2022/05/11 00:49:33;;;;;;;14.85;8.80;;;13.00;99.90;;;;;;5154480;27;20042;-83
2022/05/11 00:52:06;;;;;;;14.38;8.65;;;13.00;99.90;;;;;;5134385;27;20046;-83
2022/05/11 00:54:36;;;;;;;14.70;9.57;;;13.00;99.90;;;;;;5136354;27;20050;-83
2022/05/11 00:57:06;;;;;;;17.48;8.60;;;13.00;99.90;;;;;;5133733;27;20434;-83
2022/05/11 00:59:36;;;;;;;17.40;8.90;;;13.00;99.90;;;;;;5119975;27;20509;-82
2022/05/11 01:02:06;;;;;;;17.10;9.20;;;13.00;99.90;;;;;;5138519;27;20064;-83
2022/05/11 01:04:41;;;;;;;15.35;8.57;;;13.00;99.90;;;;;;5116152;27;20043;-82
2022/05/11 01:07:11;;;;;;;;;;;13.10;99.90;;;;;;5111838;28;20513;-82
2022/05/11 01:09:37;;;;;;;14.05;8.80;;;13.00;99.90;;;;;;5132404;27;19961;-83
2022/05/11 01:12:09;;;;;;;12.75;8.50;;;13.00;99.90;;;;;;5130022;27;20531;-82
2022/05/11 01:14:38;;;;;;;12.02;8.95;;;13.10;99.90;;;;;;5152991;27;20444;-82
2022/05/11 01:17:04;;;;;;;13.57;8.02;;;13.10;99.90;;;;;;5152723;27;20038;-82
2022/05/11 01:19:40;;;;;;;18.00;9.25;;;13.10;99.90;;;;;;5132126;27;20039;-82
2022/05/11 01:22:39;;;;;;;14.60;8.40;;;13.10;99.90;;;;;;5155206;27;20485;-82
2022/05/11 01:25:08;;;;;;;15.65;9.20;;;13.10;99.90;;;;;;5133601;27;20053;-83
2022/05/11 01:27:45;;;;;;;12.88;8.45;;;13.10;99.90;;;;;;5136641;27;20035;-82
2022/05/11 01:30:20;;;;;;;13.20;8.20;;;13.10;99.90;;;;;;5151813;27;20088;-83
2022/05/11 01:32:53;;;;;;;15.73;8.75;;;13.10;99.90;;;;;;5119326;27;20093;-83
2022/05/11 01:35:44;;;;;;;14.13;8.20;;;13.10;99.90;;;;;;5134115;27;20042;-83
2022/05/11 01:38:46;;;;;;;13.77;7.85;;;13.10;99.90;;;;;;5135547;27;20051;-83
2022/05/11 01:41:34;;;;;;;13.02;7.90;;;13.10;99.90;;;;;;5128026;28;20050;-83
2022/05/11 01:44:06;;;;;;;17.00;8.50;;;13.10;99.90;;;;;;5115084;27;20039;-83
2022/05/11 01:46:32;;;;;;;11.75;8.07;;;13.10;99.90;;;;;;5132905;28;20043;-83
2022/05/11 01:48:58;;;;;;;12.98;7.22;;;13.10;99.90;;;;;;5133821;27;20490;-83
2022/05/11 01:51:23;;;;;;;12.05;7.88;;;13.10;99.90;;;;;;5133653;27;20043;-83
2022/05/11 01:53:49;;;;;;;11.70;7.97;;;13.10;99.90;;;;;;5139240;27;20053;-83
2022/05/11 01:56:21;;;;;;;9.98;6.95;;;13.10;99.90;;;;;;5136151;27;20055;-83
2022/05/11 01:58:48;;;;;;;10.68;7.68;;;13.00;99.90;;;;;;5151862;27;20046;-83
2022/05/11 02:01:15;;;;;;;12.00;8.32;;;13.00;99.90;;;;;;5153065;27;20053;-83
2022/05/11 02:03:42;;;;;;;10.52;7.90;;;13.00;99.90;;;;;;5113815;28;20100;-83
2022/05/11 02:08:52;;;;;;;13.27;7.80;;;13.00;99.90;;;;;;5138222;27;20042;-83
2022/05/11 02:11:17;;;;;;;11.38;7.80;;;13.00;99.90;;;;;;5137362;27;20043;-83
2022/05/11 02:13:44;;;;;;;15.40;8.38;;;13.00;99.90;;;;;;5138942;27;20051;-83
2022/05/11 02:16:10;;;;;;;12.65;7.72;;;13.00;99.90;;;;;;5156745;27;20053;-83
2022/05/11 02:18:36;;;;;;;12.85;7.65;;;13.00;99.90;;;;;;5156465;27;20195;-83
2022/05/11 02:21:02;;;;;;;12.07;7.75;;;13.00;99.90;;;;;;5124725;27;20049;-83
2022/05/11 02:23:28;;;;;;;12.75;8.32;;;13.00;99.90;;;;;;5119368;27;20490;-83
2022/05/11 02:25:54;;;;;;;10.52;8.32;;;13.00;99.90;;;;;;5145825;27;20447;-83
2022/05/11 02:28:21;;;;;;;10.90;8.35;;;12.90;99.90;;;;;;5138901;27;20050;-83
2022/05/11 02:30:49;;;;;;;10.48;7.88;;;13.00;99.90;;;;;;5155745;27;20050;-83
2022/05/11 02:33:15;;;;;;;11.80;7.50;;;13.00;99.90;;;;;;5139293;27;20088;-83
2022/05/11 02:35:42;;;;;;;10.98;7.28;;;13.00;99.90;;;;;;5155438;27;20039;-83
2022/05/11 02:38:17;;;;;;;14.70;8.05;;;13.00;99.90;;;;;;5139574;27;20458;-83
2022/05/11 02:40:44;;;;;;;11.68;7.57;;;12.90;99.90;;;;;;5112351;27;20100;-83
2022/05/11 02:43:11;;;;;;;10.13;6.60;;;12.90;99.90;;;;;;5137205;27;20099;-82
2022/05/11 02:45:40;;;;;;;10.73;7.78;;;12.90;99.90;;;;;;5124758;27;20055;-83
2022/05/11 02:48:07;;;;;;;8.27;7.40;;;12.90;99.90;;;;;;5138226;27;20058;-83
2022/05/11 02:50:46;;;;;;;12.63;7.10;;;12.90;99.90;;;;;;5155466;27;20042;-83
2022/05/11 02:53:14;;;;;;;13.15;8.63;;;12.90;99.90;;;;;;5157311;27;20050;-83
2022/05/11 02:55:46;;;;;;;10.45;7.18;;;12.90;99.90;;;;;;5136003;27;20126;-83
2022/05/11 02:58:13;;;;;;;10.73;6.65;;;12.90;99.90;;;;;;5138896;27;20059;-83
2022/05/11 03:00:40;;;;;;;14.85;7.70;;;12.90;99.90;;;;;;5136623;27;20043;-83
2022/05/11 03:03:06;;;;;;;13.75;7.78;;;12.90;99.90;;;;;;5138156;27;20053;-83
2022/05/11 03:05:32;;;;;;;12.18;6.93;;;12.90;99.90;;;;;;5136655;27;20035;-83
2022/05/11 03:07:58;;;;;;;14.02;7.60;;;12.90;99.90;;;;;;5138893;27;20512;-83
2022/05/11 03:10:24;;;;;;;7.60;6.13;;;12.90;99.90;;;;;;5118417;27;20075;-83
2022/05/11 03:12:50;;;;;;;11.85;7.00;;;12.90;99.90;;;;;;5136717;27;20047;-83
2022/05/11 03:15:16;;;;;;;8.43;5.90;;;12.90;99.90;;;;;;5113200;27;20048;-83
2022/05/11 03:17:42;;;;;;;12.95;7.47;;;12.90;99.90;;;;;;5135197;27;20083;-83
2022/05/11 03:20:09;;;;;;;10.88;6.30;;;12.90;99.90;;;;;;5149529;27;20041;-83
2022/05/11 03:22:35;;;;;;;8.43;6.22;;;12.90;99.90;;;;;;5156310;27;20034;-83
2022/05/11 03:25:01;;;;;;;10.23;6.50;;;12.90;99.90;;;;;;5134586;27;20084;-83
2022/05/11 03:27:27;;;;;;;13.57;6.05;;;12.90;99.90;;;;;;5138368;27;20053;-83
2022/05/11 03:29:54;;;;;;;8.90;5.72;;;12.90;99.90;;;;;;5136137;27;20039;-82
2022/05/11 03:35:06;;;;;;;8.48;5.78;;;12.90;99.90;;;;;;5154547;27;20084;-82
2022/05/11 03:37:33;;;;;;;10.43;6.10;;;12.90;99.90;;;;;;5137443;27;20443;-83
2022/05/11 03:40:00;;;;;;;10.23;5.93;;;12.90;99.90;;;;;;5154395;27;20092;-83
2022/05/11 03:42:31;;;;;;;12.82;5.55;;;12.90;99.90;;;;;;5138242;27;20082;-83
2022/05/11 03:45:18;;;;;;;9.02;5.63;;;12.90;99.90;;;;;;5131558;27;20046;-83
2022/05/11 03:47:45;;;;;;;10.15;5.97;;;12.90;99.90;;;;;;5135660;27;20467;-83
2022/05/11 03:50:11;;;;;;;11.23;5.95;;;12.90;99.90;;;;;;5137861;27;20042;-83
2022/05/11 03:52:38;;;;;;;9.30;5.88;;;12.90;99.90;;;;;;5153310;27;20409;-83
2022/05/11 03:55:08;;;;;;;13.75;6.00;;;12.90;99.90;;;;;;5120487;27;20096;-83
2022/05/11 03:57:35;;;;;;;13.88;7.22;;;12.90;99.90;;;;;;5141905;27;20035;-83
2022/05/11 04:00:01;;;;;;;12.27;6.25;;;12.90;99.90;;;;;;5136860;27;20064;-83
2022/05/11 04:02:27;;;;;;;10.50;5.72;;;12.90;99.90;;;;;;5154100;27;20082;-83
2022/05/11 04:04:52;;;;;;;8.63;5.72;;;12.90;99.90;;;;;;5136794;27;20078;-83
2022/05/11 04:07:18;;;;;;;12.82;5.90;;;12.90;99.90;;;;;;5153898;27;20118;-84
2022/05/11 04:09:44;;;;;;;8.55;6.15;;;12.90;99.90;;;;;;5156323;27;20046;-83
2022/05/11 04:12:10;;;;;;;13.68;5.75;;;12.90;99.90;;;;;;5153029;27;20375;-83
2022/05/11 04:14:36;;;;;;;11.35;6.05;;;12.90;99.90;;;;;;5137673;27;20050;-83
2022/05/11 04:17:02;;;;;;;9.70;5.75;;;12.90;99.90;;;;;;5140680;27;20047;-83
2022/05/11 04:19:28;;;;;;;11.77;5.80;;;12.90;99.90;;;;;;5115931;27;20466;-83
2022/05/11 04:21:55;;;;;;;11.02;5.90;;;12.90;99.90;;;;;;5146193;27;20087;-82
2022/05/11 04:24:21;;;;;;;13.55;6.60;;;13.00;99.90;;;;;;5137410;27;20061;-83
2022/05/11 04:26:47;;;;;;;10.80;5.95;;;12.90;99.90;;;;;;5152535;27;20125;-83
2022/05/11 04:29:13;;;;;;;10.52;6.05;;;12.90;99.90;;;;;;5134781;27;20046;-83
2022/05/11 04:31:39;;;;;;;9.35;5.15;;;13.00;99.90;;;;;;5134763;27;20496;-83
2022/05/11 04:34:05;;;;;;;12.68;5.32;;;13.00;99.90;;;;;;5154773;27;20498;-83
2022/05/11 04:36:30;;;;;;;10.77;5.47;;;13.00;99.90;;;;;;5153481;27;20070;-83
2022/05/11 04:38:57;;;;;;;15.27;6.50;;;13.00;99.90;;;;;;5137138;27;20099;-83
2022/05/11 04:41:23;;;;;;;12.25;5.20;;;13.00;99.90;;;;;;5133960;27;20034;-83
2022/05/11 04:43:49;;;;;;;10.90;5.80;;;13.00;99.90;;;;;;5137144;27;20082;-82
2022/05/11 04:46:15;;;;;;;13.68;5.03;;;13.10;99.90;;;;;;5126817;27;20059;-83
2022/05/11 04:48:42;;;;;;;10.90;4.65;;;13.10;99.90;;;;;;5127685;27;20394;-84
2022/05/11 04:51:08;;;;;;;10.05;4.95;;;13.10;99.90;;;;;;5136918;27;20046;-83
2022/05/11 04:53:34;;;;;;;7.88;4.22;;;13.10;99.90;;;;;;5138472;27;20067;-82
2022/05/11 04:56:00;;;;;;;11.57;5.13;;;13.10;99.90;;;;;;5134066;27;20146;-83
2022/05/11 04:58:26;;;;;;;12.52;5.63;;;13.20;99.90;;;;;;5127597;27;20035;-82
2022/05/11 05:00:52;;;;;;;17.67;4.97;;;13.20;99.90;;;;;;5133085;27;20524;-82
2022/05/11 05:03:17;;;;;;;12.90;5.07;;;13.20;99.90;;;;;;5107807;27;20035;-83
2022/05/11 05:05:43;;;;;;;11.88;5.15;;;13.20;99.90;;;;;;5116271;27;20047;-82
2022/05/11 05:08:10;;;;;;;14.25;4.90;;;13.20;99.90;;;;;;5115505;28;20039;-82
2022/05/11 05:10:36;;;;;;;10.25;4.80;;;13.30;99.90;;;;;;5116127;28;20047;-82
2022/05/11 05:13:06;;;;;;;6.47;4.45;;;13.30;99.90;;;;;;5117439;27;20039;-81
2022/05/11 05:15:34;;;;;;;11.95;4.60;;;13.40;99.90;;;;;;5144944;27;20036;-82
2022/05/11 05:18:01;;;;;;;12.95;4.72;;;13.40;99.90;;;;;;5149059;27;20050;-82
2022/05/11 05:20:31;;;;;;;12.95;4.35;;;13.40;99.90;;;;;;5152836;27;20053;-81
2022/05/11 05:22:57;;;;;;;11.90;4.53;;;13.40;99.90;;;;;;5133457;28;20093;-82
2022/05/11 05:25:24;;;;;;;15.00;4.80;;;13.40;99.90;;;;;;5116088;28;20496;-81
2022/05/11 05:27:51;;;;;;;12.68;5.50;;;13.50;99.90;;;;;;5145019;27;20143;-81
2022/05/11 05:33:03;;;;;;;13.40;5.72;;;13.60;99.90;;;;;;5128164;27;20047;-82
2022/05/11 05:35:29;;;;;;;11.80;5.07;;;13.60;99.90;;;;;;5115544;27;20367;-82
2022/05/11 05:37:55;;;;;;;11.68;5.03;;;13.60;99.90;;;;;;5121764;28;20081;-82
2022/05/11 05:40:21;;;;;;;14.43;5.13;;;13.60;99.90;;;;;;5126071;27;20043;-86
2022/05/11 05:42:48;;;;;;;11.20;5.20;;;13.70;99.90;;;;;;5119542;27;20043;-87
2022/05/11 05:45:13;;;;;;;13.55;5.20;;;13.70;99.90;;;;;;5119139;27;20057;-86
2022/05/11 05:47:39;;;;;;;15.13;4.72;;;13.80;99.90;;;;;;5103344;27;20129;-85
2022/05/11 05:50:06;;;;;;;12.35;4.45;;;13.80;99.90;;;;;;5106918;27;20046;-85
2022/05/11 05:52:32;;;;;;;12.52;5.10;;;13.80;99.90;;;;;;5137135;27;20051;-84
2022/05/11 05:54:58;;;;;;;15.25;4.57;;;13.90;99.90;;;;;;5141064;27;20046;-85
2022/05/11 05:57:24;;;;;;;14.10;5.13;;;13.90;99.90;;;;;;5138001;27;20043;-81
2022/05/11 05:59:50;;;;;;;12.65;4.35;;;13.90;99.90;;;;;;5127683;27;20039;-81
2022/05/11 06:02:16;;;;;;;19.52;5.38;;;13.90;99.90;;;;;;5139323;27;20035;-81
2022/05/11 06:04:47;;;;;;;15.90;5.00;;;13.90;99.90;;;;;;5135097;27;20046;-81
2022/05/11 06:07:15;;;;;;;14.18;5.40;;;14.00;99.90;;;;;;5137702;27;20088;-81
2022/05/11 06:09:41;;;;;;;11.55;4.60;;;14.00;99.90;;;;;;5135784;27;20755;-81
2022/05/11 06:12:09;;;;;;;15.23;4.65;;;14.10;99.90;;;;;;5129709;27;20066;-81
2022/05/11 06:14:35;;;;;;;18.35;5.80;;;14.20;99.90;;;;;;5129842;27;20060;-81
2022/05/11 06:17:01;;;;;;;21.13;7.07;;;14.20;99.90;;;;;;5133022;27;20164;-81
2022/05/11 06:19:28;;;;;;;18.35;5.47;;;14.30;99.90;;;;;;5106767;27;20047;-81
2022/05/11 06:21:54;;;;;;;12.80;5.28;;;14.40;99.90;;;;;;5135658;27;20035;-81
2022/05/11 06:24:20;;;;;;;16.13;5.15;;;14.60;99.90;;;;;;5137495;27;20100;-81
2022/05/11 06:26:46;;;;;;;21.38;5.85;;;14.70;99.90;;;;;;5157440;27;20035;-82
2022/05/11 06:29:12;;;;;;;15.10;5.78;;;14.90;99.90;;;;;;5155836;27;20038;-81
2022/05/11 06:31:38;;;;;;;12.93;5.20;;;15.00;99.90;;;;;;5126707;27;20043;-81
2022/05/11 06:34:06;;;;;;;20.50;5.95;;;15.10;99.90;;;;;;5140611;27;20078;-81
2022/05/11 06:36:31;;;;;;;13.55;5.28;;;15.10;99.90;;;;;;5105999;27;20061;-80
2022/05/11 06:38:57;;;;;;;16.85;5.60;;;15.20;99.90;;;;;;5157870;27;20039;-80
2022/05/11 06:41:26;;;;;;;17.60;5.35;;;15.20;99.90;;;;;;5157082;27;20078;-81
2022/05/11 06:43:52;;;;;;;13.60;6.10;;;15.10;99.90;;;;;;5139235;27;20497;-80
2022/05/11 06:46:19;;;;;;;18.10;5.65;;;15.10;99.90;;;;;;5105291;27;20043;-81
2022/05/11 06:48:45;;;;;;;21.35;5.45;;;15.20;99.90;;;;;;5137479;27;20039;-81
2022/05/11 06:51:12;;;;;;;13.65;5.13;;;15.10;99.90;;;;;;5125442;27;20135;-80
2022/05/11 06:59:40;;;;;;;17.42;5.65;;;15.10;99.90;;;;;;5118606;27;20050;-81
2022/05/11 07:02:03;;;;;;;16.33;4.97;;;15.20;99.90;;;;;;5138446;27;20043;-82
2022/05/11 07:04:33;;;;;;;17.42;4.35;;;15.20;99.90;;;;;;5125976;27;20047;-81
2022/05/11 07:07:00;;;;;;;18.35;5.45;;;15.20;99.90;;;;;;5157542;27;20122;-81
2022/05/11 07:09:31;;;;;;;19.83;5.28;;;15.30;99.90;;;;;;5137929;27;20469;-82
2022/05/11 07:15:01;;;;;;;13.93;3.90;;;15.30;99.90;;;;;;5156649;27;20462;-81
2022/05/11 07:17:35;;;;;;;11.32;4.68;;;15.40;99.90;;;;;;5157180;27;20554;-81
2022/05/11 07:20:07;;;;;;;14.07;4.03;;;15.50;99.90;;;;;;5157271;27;20096;-82
2022/05/11 07:22:33;;;;;;;15.20;3.33;;;15.50;99.90;;;;;;5156344;27;20501;-80
2022/05/11 07:24:59;;;;;;;18.52;4.28;;;15.60;99.90;;;;;;5138624;27;20046;-83
2022/05/11 07:27:25;;;;;;;15.48;3.42;;;15.60;99.90;;;;;;5138357;27;20070;-83
2022/05/11 07:29:53;;;;;;;17.15;4.20;;;15.70;99.90;;;;;;5137522;27;20078;-81
2022/05/11 07:32:19;;;;;;;13.02;3.10;;;15.60;99.90;;;;;;5156906;27;20043;-82
2022/05/11 07:34:45;;;;;;;13.88;3.65;;;15.70;99.90;;;;;;5157068;27;20379;-81
2022/05/11 07:37:11;;;;;;;14.23;3.70;;;15.70;99.90;;;;;;5137702;27;20061;-81
2022/05/11 07:39:37;;;;;;;11.75;2.92;;;15.80;99.90;;;;;;5121266;27;20050;-83
2022/05/11 07:42:03;;;;;;;18.13;4.25;;;15.80;99.90;;;;;;5156828;27;20074;-82
2022/05/11 07:44:29;;;;;;;14.45;3.45;;;15.80;99.90;;;;;;5155948;27;20473;-82
2022/05/11 07:46:55;;;;;;;19.73;4.38;;;15.90;99.90;;;;;;5138132;27;20046;-82
2022/05/11 07:49:21;;;;;;;14.93;3.78;;;15.90;99.90;;;;;;5156740;27;20039;-83
2022/05/11 07:51:49;;;;;;;13.55;4.50;;;15.90;99.90;;;;;;5155551;27;20482;-81
2022/05/11 07:54:15;;;;;;;12.23;4.25;;;16.10;99.90;;;;;;5156303;27;20058;-82
2022/05/11 08:02:14;;;;;;;19.90;3.67;;;16.20;99.90;;;;;;5156281;27;20042;-82
2022/05/11 08:04:41;;;;;;;15.07;3.90;;;16.20;99.90;;;;;;5155468;27;20509;-81
2022/05/11 08:07:08;;;;;;;18.65;4.07;;;16.20;99.90;;;;;;5156221;27;20078;-82
2022/05/11 08:09:34;;;;;;;14.70;3.25;;;16.20;99.90;;;;;;5137720;27;20051;-81
2022/05/11 08:12:00;;;;;;;9.93;3.40;;;16.20;99.90;;;;;;5155231;27;20046;-81
2022/05/11 08:14:26;;;;;;;17.33;3.60;;;16.30;99.90;;;;;;5120485;27;20035;-82
2022/05/11 08:16:52;;;;;;;16.92;4.20;;;16.40;99.90;;;;;;5137402;27;20390;-82
2022/05/11 08:19:26;;;;;;;22.52;4.47;;;16.50;99.90;;;;;;5155357;27;20031;-82
2022/05/11 08:21:54;;;;;;;46.45;4.78;;;16.60;99.90;;;;;;5156300;27;20042;-82
2022/05/11 08:24:21;;;;;;;18.05;3.80;;;16.70;99.90;;;;;;5156044;27;20043;-81
2022/05/11 08:26:50;;;;;;;14.82;3.50;;;16.70;99.90;;;;;;5136515;27;20413;-80
2022/05/11 08:34:47;;;;;;;;;;;16.60;99.90;;;;;;5156252;27;20042;-82
2022/05/11 08:37:14;;;;;;;16.38;4.10;;;16.60;99.90;;;;;;5137223;27;19922;-81
2022/05/11 08:39:40;;;;;;;12.95;3.42;;;16.70;99.90;;;;;;5154810;27;20431;-82
2022/05/11 08:42:07;;;;;;;15.23;2.88;;;16.70;99.90;;;;;;5137058;27;20049;-81
2022/05/11 08:44:34;;;;;;;13.07;3.70;;;16.80;99.90;;;;;;5137351;27;20099;-82
2022/05/11 08:47:18;;;;;;;11.40;2.97;;;16.80;99.90;;;;;;5154573;27;20500;-82
2022/05/11 08:49:59;;;;;;;16.75;3.55;;;17.00;99.90;;;;;;5119843;27;20073;-81
2022/05/11 08:52:47;;;;;;;16.80;3.55;;;17.00;99.90;;;;;;5136658;27;20062;-81
2022/05/11 08:55:46;;;;;;;16.80;3.33;;;17.10;99.90;;;;;;5136126;27;20170;-82
2022/05/11 08:58:27;;;;;;;16.65;4.10;;;17.10;99.90;;;;;;5123415;27;20485;-82
2022/05/11 09:00:55;;;;;;;17.92;3.45;;;17.10;99.90;;;;;;5154802;27;20046;-81
2022/05/11 09:03:34;;;;;;;18.10;3.67;;;17.10;99.90;;;;;;5155365;27;20117;-81
2022/05/11 09:06:03;;;;;;;17.33;3.60;;;17.10;99.90;;;;;;5136807;27;20047;-82
2022/05/11 09:08:35;;;;;;;16.40;2.67;;;17.10;99.90;;;;;;5135866;27;20050;-82
2022/05/11 09:11:01;;;;;;;19.38;3.78;;;17.10;99.90;;;;;;5103612;27;20049;-80
2022/05/11 09:13:27;;;;;;;17.02;3.10;;;17.20;99.90;;;;;;5136366;27;20504;-83
2022/05/11 09:15:53;;;;;;;17.80;3.40;;;17.20;99.90;;;;;;5135893;27;20043;-82
2022/05/11 09:18:40;;;;;;;17.45;3.72;;;17.30;99.90;;;;;;5136924;27;20363;-80
2022/05/11 09:21:32;;;;;;;12.90;3.05;;;17.30;99.90;;;;;;5155168;27;20039;-81
2022/05/11 09:24:20;;;;;;;18.85;4.00;;;17.20;99.90;;;;;;5155207;27;20053;-81
2022/05/11 09:26:59;;;;;;;23.90;3.23;;;17.20;99.90;;;;;;5119757;27;20539;-81
2022/05/11 09:29:41;;;;;;;15.80;3.63;;;17.20;99.90;;;;;;5118885;27;20050;-82
2022/05/11 09:32:38;;;;;;;17.55;3.05;;;17.40;99.90;;;;;;5154780;27;20115;-81
2022/05/11 09:35:36;;;;;;;16.63;3.90;;;17.60;99.90;;;;;;5098609;27;20062;-83
2022/05/11 09:38:17;;;;;;;17.23;3.35;;;17.70;99.90;;;;;;5136389;27;20038;-83
2022/05/11 09:40:56;;;;;;;13.68;3.10;;;17.80;99.90;;;;;;5136707;27;20085;-81
2022/05/11 09:44:07;;;;;;;17.98;4.05;;;17.70;99.90;;;;;;5135575;27;20038;-80
2022/05/11 09:46:35;;;;;;;17.13;3.92;;;17.70;99.90;;;;;;5050878;28;20139;-81
2022/05/11 09:49:13;;;;;;;16.98;3.75;;;17.80;99.90;;;;;;5050964;28;20044;-82
2022/05/11 09:51:38;;;;;;;13.95;3.05;;;17.90;99.90;;;;;;5091947;27;20133;-81
2022/05/11 09:54:42;;;;;;;15.88;3.55;;;18.00;99.90;;;;;;5136237;27;20089;-82
2022/05/11 09:57:08;;;;;;;19.33;3.65;;;18.10;99.90;;;;;;5016864;28;20049;-82
2022/05/11 09:59:43;;;;;;;15.57;4.18;;;18.20;99.90;;;;;;5135163;27;20096;-82
2022/05/11 10:02:15;;;;;;;13.77;3.42;;;18.30;99.90;;;;;;5119193;27;20038;-81
2022/05/11 10:05:08;;;;;;;16.55;4.03;;;18.40;99.90;;;;;;5153701;27;20058;-81
2022/05/11 10:07:50;;;;;;;26.20;4.47;;;18.50;99.90;;;;;;5109337;27;20439;-82
2022/05/11 10:10:46;;;;;;;19.23;5.20;;;18.60;99.90;;;;;;5131676;27;20046;-81
2022/05/11 10:13:19;;;;;;;11.55;3.65;;;18.70;99.90;;;;;;5136657;27;20051;-82
2022/05/11 10:21:56;;;;;;;15.48;2.92;;;19.30;99.90;;;;;;5136505;27;20046;-81
2022/05/11 10:24:55;;;;;;;17.77;3.95;;;19.30;99.90;;;;;;5136270;27;20086;-81
2022/05/11 10:28:05;;;;;;;12.65;3.90;;;19.40;99.90;;;;;;5138755;27;20051;-82
2022/05/11 10:30:56;;;;;;;14.40;3.88;;;19.70;99.90;;;;;;5145765;27;20050;-81
2022/05/11 10:33:24;;;;;;;14.48;4.03;;;19.90;99.90;;;;;;5138994;27;20112;-80
2022/05/11 10:36:08;;;;;;;13.43;3.70;;;19.80;99.90;;;;;;5139599;27;20038;-81
2022/05/11 10:38:40;;;;;;;10.98;2.72;;;19.90;99.90;;;;;;5157292;27;20473;-82
2022/05/11 10:41:27;;;;;;;11.70;3.50;;;20.00;99.90;;;;;;5158163;27;20042;-82
2022/05/11 10:43:59;;;;;;;18.77;3.40;;;20.00;99.90;;;;;;5157973;27;20092;-81
2022/05/11 10:46:28;;;;;;;15.68;3.78;;;20.10;99.90;;;;;;5138684;27;20095;-82
2022/05/11 10:49:16;;;;;;;15.95;3.80;;;20.10;99.90;;;;;;5157636;27;20124;-80
2022/05/11 10:51:44;;;;;;;9.60;2.80;;;20.10;99.90;;;;;;5157634;27;20082;-80
2022/05/11 10:55:07;;;;;;;14.45;3.58;;;20.10;99.90;;;;;;5138346;27;20051;-82
2022/05/11 10:57:47;;;;;;;13.93;3.78;;;20.20;99.90;;;;;;5053714;28;20077;-82
2022/05/11 11:00:22;;;;;;;15.90;5.22;;;20.20;99.90;;;;;;5036359;28;20040;-82
2022/05/11 11:02:50;;;;;;;14.43;2.75;;;20.30;99.90;;;;;;5096813;27;20051;-83
2022/05/11 11:05:28;;;;;;;11.18;3.50;;;20.20;99.90;;;;;;5157411;27;20046;-81
2022/05/11 11:08:32;;;;;;;14.25;3.42;;;20.20;99.90;;;;;;5156827;27;20043;-82
2022/05/11 11:11:20;;;;;;;10.20;3.17;;;20.20;99.90;;;;;;5156584;27;20046;-83
2022/05/11 11:14:00;;;;;;;11.25;3.20;;;20.00;99.90;;;;;;5156564;27;20042;-80
2022/05/11 11:16:35;;;;;;;9.75;2.72;;;20.10;99.90;;;;;;5138982;27;20081;-81
2022/05/11 11:19:04;;;;;;;10.73;2.45;;;20.00;99.90;;;;;;5157454;27;20046;-82
2022/05/11 11:21:31;;;;;;;11.13;2.53;;;20.00;99.90;;;;;;5121047;27;20039;-81
2022/05/11 11:24:12;;;;;;;10.18;2.35;;;20.00;99.90;;;;;;5138701;27;20078;-82
2022/05/11 11:26:41;;;;;;;9.90;2.58;;;19.90;99.90;;;;;;5138466;27;20046;-82
2022/05/11 11:29:06;;;;;;;11.70;3.05;;;19.80;99.90;;;;;;5137536;27;20038;-81
2022/05/11 11:31:52;;;;;;;15.57;3.20;;;19.70;99.90;;;;;;5157003;27;20045;-80
2022/05/11 11:34:20;;;;;;;15.85;2.72;;;19.70;99.90;;;;;;5156771;27;20078;-81
2022/05/11 11:36:46;;;;;;;10.13;2.42;;;19.70;99.90;;;;;;5155715;27;20050;-83
2022/05/11 11:39:33;;;;;;;13.05;2.95;;;19.80;99.90;;;;;;5121104;27;20497;-81
2022/05/11 11:42:07;;;;;;;9.10;2.08;;;19.90;99.90;;;;;;5137165;27;20042;-81
2022/05/11 11:44:43;;;;;;;17.30;2.90;;;20.00;99.90;;;;;;5138568;27;20118;-82
2022/05/11 11:47:27;;;;;;;11.85;2.70;;;20.00;99.90;;;;;;5138171;27;20043;-81
2022/05/11 11:49:58;;;;;;;8.35;2.08;;;20.10;99.90;;;;;;5137103;27;20043;-80
2022/05/11 11:52:44;;;;;;;10.07;2.40;;;19.90;99.90;;;;;;5137526;27;20054;-85
2022/05/11 11:55:30;;;;;;;8.10;2.00;;;19.70;99.90;;;;;;5120664;27;20042;-83
2022/05/11 11:58:16;;;;;;;6.25;1.70;;;19.60;99.90;;;;;;5120589;27;20087;-81
2022/05/11 12:00:45;;;;;;;10.93;2.30;;;19.70;99.90;;;;;;5156556;27;20034;-81
2022/05/11 12:03:23;;;;;;;7.53;1.45;;;19.60;99.90;;;;;;5155568;27;20136;-81
2022/05/11 12:05:54;;;;;;;13.43;3.05;;;19.60;99.90;;;;;;5156383;27;20042;-81
2022/05/11 12:16:58;;;;;;;4.88;1.70;;;19.80;99.20;;;;;;5125033;27;20078;-78
2022/05/11 12:19:26;;;;;;;10.27;1.60;;;19.90;99.80;;;;;;5134291;27;20172;-80
2022/05/11 12:22:18;;;;;;;5.35;1.42;;;20.00;99.10;;;;;;5120162;27;20500;-81
2022/05/11 12:24:47;;;;;;;8.35;1.20;;;20.20;97.20;;;;;;5129660;27;20038;-80
2022/05/11 12:27:28;;;;;;;8.07;1.38;;;20.20;95.20;;;;;;5137970;27;20050;-81
2022/05/11 12:29:59;;;;;;;10.15;2.17;;;20.10;94.20;;;;;;5120156;27;20035;-80
2022/05/11 12:32:35;;;;;;;10.10;2.67;;;20.10;95.30;;;;;;5115219;27;20486;-83
2022/05/11 12:35:13;;;;;;;9.85;1.95;;;20.00;95.40;;;;;;5122814;27;20039;-81
2022/05/11 12:37:39;;;;;;;13.98;2.42;;;19.90;97.60;;;;;;5116274;27;20047;-79
2022/05/11 12:40:14;;;;;;;15.20;2.30;;;19.90;96.00;;;;;;5114409;27;20043;-81
2022/05/11 12:42:42;;;;;;;10.13;2.03;;;19.80;95.40;;;;;;5116117;27;20073;-79
2022/05/11 12:45:12;;;;;;;10.57;2.05;;;19.80;96.20;;;;;;5134358;27;20043;-82
2022/05/11 12:47:48;;;;;;;7.47;2.05;;;19.80;96.70;;;;;;5115110;27;20054;-81
2022/05/11 12:50:28;;;;;;;12.23;2.03;;;19.80;96.40;;;;;;5114663;27;20039;-80
2022/05/11 12:53:28;;;;;;;10.88;2.60;;;19.70;97.20;;;;;;5115059;27;20092;-81
2022/05/11 12:56:07;;;;;;;12.45;2.30;;;19.70;98.00;;;;;;5133976;27;20082;-81
2022/05/11 12:58:34;;;;;;;6.13;2.05;;;19.70;99.60;;;;;;5115256;27;20035;-80
2022/05/11 13:01:03;;;;;;;12.30;2.13;;;19.70;99.60;;;;;;5137993;27;20039;-80
2022/05/11 13:03:35;;;;;;;20.88;3.50;;;19.80;99.60;;;;;;5135572;27;20428;-80
2022/05/11 13:06:29;;;;;;;16.67;2.65;;;19.80;99.60;;;;;;5125166;27;20062;-80
2022/05/11 13:09:01;;;;;;;9.40;2.53;;;19.90;99.90;;;;;;5134466;27;20478;-79
2022/05/11 13:11:28;;;;;;;14.63;2.65;;;19.80;99.90;;;;;;5115335;28;20414;-79
2022/05/11 13:13:57;;;;;;;14.00;2.53;;;19.60;99.90;;;;;;5133607;27;20058;-80
2022/05/11 13:16:31;;;;;;;10.75;2.80;;;19.60;99.90;;;;;;5098445;28;20502;-82
2022/05/11 13:19:23;;;;;;;13.07;3.00;;;19.70;99.90;;;;;;5134567;28;20432;-80
2022/05/11 13:21:50;;;;;;;11.52;2.67;;;19.80;99.90;;;;;;5115745;28;20048;-80
2022/05/11 13:24:42;;;;;;;12.05;2.65;;;19.80;99.90;;;;;;5134180;28;20047;-81
2022/05/11 13:27:48;;;;;;;20.60;2.97;;;19.70;99.90;;;;;;5134186;27;20035;-82
2022/05/11 13:30:32;;;;;;;14.25;3.60;;;19.80;99.90;;;;;;5030905;28;20113;-80
2022/05/11 13:33:03;;;;;;;14.55;2.33;;;19.80;99.90;;;;;;5110015;28;20051;-80
2022/05/11 13:35:39;;;;;;;18.85;2.55;;;19.80;99.90;;;;;;5115229;28;20439;-80
2022/05/11 13:38:18;;;;;;;11.85;3.15;;;19.70;99.90;;;;;;5133857;27;20071;-79
2022/05/11 13:41:00;;;;;;;10.98;2.55;;;19.70;99.90;;;;;;5116095;28;20051;-81
2022/05/11 13:43:35;;;;;;;12.07;3.33;;;19.80;99.90;;;;;;5114599;28;20051;-82